createdAt,value
2018-10-11T00:00:59.345Z,0.00
2018-10-11T00:01:59.344Z,0.00
2018-10-11T00:02:59.340Z,0.00
2018-10-11T00:03:59.340Z,0.00
2018-10-11T00:04:59.327Z,0.00
2018-10-11T00:05:59.325Z,0.00
2018-10-11T00:06:59.328Z,0.00
2018-10-11T00:07:59.326Z,0.00
2018-10-11T00:08:59.316Z,0.00
2018-10-11T00:09:59.311Z,0.00
2018-10-11T00:10:59.308Z,0.00
2018-10-11T00:11:59.304Z,0.00
2018-10-11T00:12:59.308Z,0.00
2018-10-11T00:13:59.303Z,0.00
2018-10-11T00:14:59.300Z,0.00
2018-10-11T00:15:59.295Z,0.00
2018-10-11T00:16:59.288Z,0.00
2018-10-11T00:17:59.286Z,0.00
2018-10-11T00:18:59.281Z,0.00
2018-10-11T00:19:59.285Z,0.00
2018-10-11T00:20:59.278Z,0.00
2018-10-11T00:21:59.275Z,0.00
2018-10-11T00:22:59.270Z,0.00
2018-10-11T00:23:59.264Z,0.00
2018-10-11T00:24:59.265Z,0.00
2018-10-11T00:25:59.263Z,0.00
2018-10-11T00:26:59.260Z,0.00
2018-10-11T00:27:59.256Z,0.00
2018-10-11T00:28:59.247Z,0.00
2018-10-11T00:29:59.245Z,0.00
2018-10-11T00:30:59.247Z,0.00
2018-10-11T00:31:59.238Z,0.00
2018-10-11T00:32:59.240Z,0.00
2018-10-11T00:33:59.239Z,0.00
2018-10-11T00:34:59.231Z,0.00
2018-10-11T00:35:59.228Z,0.00
2018-10-11T00:36:59.221Z,0.00
2018-10-11T00:37:59.217Z,0.00
2018-10-11T00:38:59.218Z,0.00
2018-10-11T00:39:59.217Z,0.00
2018-10-11T00:40:59.208Z,0.00
2018-10-11T00:41:59.204Z,0.00
2018-10-11T00:42:59.201Z,0.00
2018-10-11T00:43:59.197Z,0.00
2018-10-11T00:44:59.199Z,0.00
2018-10-11T00:45:59.198Z,0.00
2018-10-11T00:46:59.193Z,0.00
2018-10-11T00:47:59.188Z,0.00
2018-10-11T00:48:59.180Z,0.00
2018-10-11T00:49:59.177Z,0.00
2018-10-11T00:50:59.174Z,0.00
2018-10-11T00:51:59.172Z,0.00
2018-10-11T00:52:59.174Z,0.00
2018-10-11T00:53:59.168Z,0.00
2018-10-11T00:54:59.159Z,0.00
2018-10-11T00:55:59.156Z,0.00
2018-10-11T00:56:59.158Z,0.00
2018-10-11T00:57:59.155Z,0.00
2018-10-11T00:58:59.151Z,0.00
2018-10-11T00:59:59.146Z,0.00
2018-10-11T01:00:59.139Z,0.00
2018-10-11T01:01:59.137Z,0.00
2018-10-11T01:02:59.132Z,0.00
2018-10-11T01:03:59.134Z,0.00
2018-10-11T01:04:59.129Z,0.00
2018-10-11T01:05:59.126Z,0.00
2018-10-11T01:06:59.123Z,0.00
2018-10-11T01:07:59.128Z,0.00
2018-10-11T01:08:59.112Z,0.00
2018-10-11T01:09:59.204Z,0.00
2018-10-11T01:10:59.110Z,0.00
2018-10-11T01:11:59.106Z,0.00
2018-10-11T01:12:59.098Z,0.00
2018-10-11T01:13:59.094Z,0.00
2018-10-11T01:14:59.091Z,0.00
2018-10-11T01:15:59.087Z,0.00
2018-10-11T01:16:59.096Z,0.00
2018-10-11T01:17:59.084Z,0.00
2018-10-11T01:18:59.081Z,0.00
2018-10-11T01:19:59.077Z,0.00
2018-10-11T01:20:59.070Z,0.00
2018-10-11T01:21:59.067Z,0.00
2018-10-11T01:22:59.064Z,0.00
2018-10-11T01:23:59.060Z,0.00
2018-10-11T01:24:59.061Z,0.00
2018-10-11T01:25:59.059Z,0.00
2018-10-11T01:26:59.052Z,0.00
2018-10-11T01:27:59.047Z,0.00
2018-10-11T01:28:59.048Z,0.00
2018-10-11T01:29:59.084Z,0.00
2018-10-11T01:30:59.045Z,0.00
2018-10-11T01:31:59.037Z,0.00
2018-10-11T01:32:59.028Z,0.00
2018-10-11T01:33:59.030Z,0.00
2018-10-11T01:34:59.022Z,0.00
2018-10-11T01:35:59.018Z,0.00
2018-10-11T01:36:59.019Z,0.00
2018-10-11T01:37:59.015Z,0.00
2018-10-11T01:38:59.014Z,0.00
2018-10-11T01:39:59.009Z,0.00
2018-10-11T01:40:59.002Z,0.00
2018-10-11T01:41:58.999Z,0.00
2018-10-11T01:42:59.000Z,0.00
2018-10-11T01:43:58.994Z,0.00
2018-10-11T01:44:58.988Z,0.00
2018-10-11T01:45:58.983Z,0.00
2018-10-11T01:46:58.981Z,0.00
2018-10-11T01:47:58.977Z,0.00
2018-10-11T01:48:58.976Z,0.00
2018-10-11T01:49:58.972Z,0.00
2018-10-11T01:50:58.970Z,0.00
2018-10-11T01:51:58.965Z,0.00
2018-10-11T01:52:58.957Z,0.00
2018-10-11T01:53:58.954Z,0.00
2018-10-11T01:54:58.952Z,0.00
2018-10-11T01:55:58.952Z,0.00
2018-10-11T01:56:58.949Z,0.00
2018-10-11T01:57:58.944Z,0.00
2018-10-11T01:58:58.935Z,0.00
2018-10-11T01:59:58.931Z,0.00
2018-10-11T02:00:58.933Z,0.00
2018-10-11T02:01:58.930Z,0.00
2018-10-11T02:02:58.925Z,0.00
2018-10-11T02:03:58.921Z,0.00
2018-10-11T02:04:58.913Z,0.00
2018-10-11T02:05:58.910Z,0.00
2018-10-11T02:06:58.906Z,0.00
2018-10-11T02:07:58.901Z,0.00
2018-10-11T02:08:58.903Z,0.00
2018-10-11T02:09:58.899Z,0.00
2018-10-11T02:10:58.896Z,0.00
2018-10-11T02:11:58.892Z,0.00
2018-10-11T02:12:58.885Z,0.00
2018-10-11T02:13:58.883Z,0.00
2018-10-11T02:14:58.883Z,0.00
2018-10-11T02:15:58.875Z,0.00
2018-10-11T02:16:58.868Z,0.00
2018-10-11T02:17:58.864Z,0.00
2018-10-11T02:18:58.860Z,0.00
2018-10-11T02:19:58.859Z,0.00
2018-10-11T02:20:58.857Z,0.00
2018-10-11T02:21:58.853Z,0.00
2018-10-11T02:22:58.852Z,0.00
2018-10-11T02:23:58.845Z,0.00
2018-10-11T02:24:58.836Z,0.00
2018-10-11T02:25:58.833Z,0.00
2018-10-11T02:26:58.831Z,0.00
2018-10-11T02:27:58.825Z,0.00
2018-10-11T02:28:58.828Z,0.00
2018-10-11T02:29:58.824Z,0.00
2018-10-11T02:30:58.814Z,0.00
2018-10-11T02:31:58.846Z,0.00
2018-10-11T02:32:58.813Z,0.00
2018-10-11T02:33:58.809Z,0.00
2018-10-11T02:34:58.804Z,0.00
2018-10-11T02:35:58.801Z,0.00
2018-10-11T02:36:58.793Z,0.00
2018-10-11T02:37:58.789Z,0.00
2018-10-11T02:38:58.786Z,0.00
2018-10-11T02:39:58.782Z,0.00
2018-10-11T02:40:58.785Z,0.00
2018-10-11T02:41:58.778Z,0.00
2018-10-11T02:42:58.778Z,0.00
2018-10-11T02:43:58.774Z,0.00
2018-10-11T02:44:58.761Z,0.00
2018-10-11T02:45:58.758Z,0.00
2018-10-11T02:46:58.763Z,0.00
2018-10-11T02:47:58.754Z,0.00
2018-10-11T02:48:58.745Z,0.00
2018-10-11T02:49:58.745Z,0.00
2018-10-11T02:50:58.739Z,0.00
2018-10-11T02:51:58.733Z,0.00
2018-10-11T02:52:58.733Z,0.00
2018-10-11T02:53:58.730Z,0.00
2018-10-11T02:54:58.728Z,0.00
2018-10-11T02:55:58.724Z,0.00
2018-10-11T02:56:58.718Z,0.00
2018-10-11T02:57:58.710Z,0.00
2018-10-11T02:58:58.707Z,0.00
2018-10-11T02:59:58.703Z,0.00
2018-10-11T03:00:58.704Z,0.00
2018-10-11T03:01:58.707Z,0.00
2018-10-11T03:02:58.696Z,0.00
2018-10-11T03:03:58.687Z,0.00
2018-10-11T03:04:58.687Z,0.00
2018-10-11T03:05:58.684Z,0.00
2018-10-11T03:06:58.681Z,0.00
2018-10-11T03:07:58.676Z,0.00
2018-10-11T03:08:58.672Z,0.00
2018-10-11T03:09:58.666Z,0.00
2018-10-11T03:10:58.660Z,0.00
2018-10-11T03:11:58.655Z,0.00
2018-10-11T03:12:58.658Z,0.00
2018-10-11T03:13:58.653Z,0.00
2018-10-11T03:14:58.648Z,0.00
2018-10-11T03:15:58.644Z,0.00
2018-10-11T03:16:58.636Z,0.00
2018-10-11T03:17:58.633Z,0.00
2018-10-11T03:18:58.632Z,0.00
2018-10-11T03:19:58.628Z,0.00
2018-10-11T03:20:58.619Z,0.00
2018-10-11T03:21:58.615Z,0.00
2018-10-11T03:22:58.612Z,0.00
2018-10-11T03:23:58.608Z,0.00
2018-10-11T03:24:58.609Z,0.00
2018-10-11T03:25:58.604Z,0.00
2018-10-11T03:26:58.601Z,0.00
2018-10-11T03:27:58.595Z,0.00
2018-10-11T03:28:58.589Z,0.00
2018-10-11T03:29:58.588Z,0.00
2018-10-11T03:30:58.581Z,0.00
2018-10-11T03:31:58.575Z,0.00
2018-10-11T03:32:58.576Z,0.00
2018-10-11T03:33:58.571Z,0.00
2018-10-11T03:34:58.563Z,0.00
2018-10-11T03:35:58.559Z,0.00
2018-10-11T03:36:58.560Z,0.00
2018-10-11T03:37:58.555Z,0.00
2018-10-11T03:38:58.551Z,0.00
2018-10-11T03:39:58.547Z,0.00
2018-10-11T03:40:58.539Z,0.00
2018-10-11T03:41:58.539Z,0.00
2018-10-11T03:42:58.532Z,0.00
2018-10-11T03:43:58.527Z,0.00
2018-10-11T03:44:58.528Z,0.00
2018-10-11T03:45:58.523Z,0.00
2018-10-11T03:46:58.519Z,0.00
2018-10-11T03:47:58.515Z,0.00
2018-10-11T03:48:58.506Z,0.00
2018-10-11T03:49:58.502Z,0.00
2018-10-11T03:50:58.503Z,0.00
2018-10-11T03:51:58.499Z,0.00
2018-10-11T03:52:58.490Z,0.00
2018-10-11T03:53:58.487Z,0.00
2018-10-11T03:54:58.483Z,0.00
2018-10-11T03:55:58.479Z,0.00
2018-10-11T03:56:58.479Z,0.00
2018-10-11T03:57:58.476Z,0.00
2018-10-11T03:58:58.470Z,0.00
2018-10-11T03:59:58.468Z,0.00
2018-10-11T04:00:58.459Z,0.00
2018-10-11T04:01:58.454Z,0.00
2018-10-11T04:02:58.450Z,0.00
2018-10-11T04:03:58.446Z,0.00
2018-10-11T04:04:58.446Z,0.00
2018-10-11T04:05:58.444Z,0.00
2018-10-11T04:06:58.434Z,0.00
2018-10-11T04:07:58.430Z,0.00
2018-10-11T04:08:58.431Z,0.00
2018-10-11T04:09:58.430Z,0.00
2018-10-11T04:10:58.421Z,0.00
2018-10-11T04:11:58.419Z,0.00
2018-10-11T04:12:58.408Z,0.00
2018-10-11T04:13:58.405Z,0.00
2018-10-11T04:14:58.401Z,0.00
2018-10-11T04:15:58.395Z,0.00
2018-10-11T04:16:58.396Z,0.00
2018-10-11T04:17:58.391Z,0.00
2018-10-11T04:18:58.389Z,0.00
2018-10-11T04:19:58.384Z,0.00
2018-10-11T04:20:58.376Z,0.00
2018-10-11T04:21:58.371Z,0.00
2018-10-11T04:22:58.371Z,0.00
2018-10-11T04:23:58.368Z,0.00
2018-10-11T04:24:58.358Z,0.00
2018-10-11T04:25:58.381Z,0.00
2018-10-11T04:26:58.351Z,0.00
2018-10-11T04:27:58.344Z,0.00
2018-10-11T04:28:58.345Z,0.00
2018-10-11T04:30:58.336Z,0.00
2018-10-11T04:31:58.333Z,0.00
2018-10-11T04:32:58.324Z,0.00
2018-10-11T04:33:58.323Z,0.00
2018-10-11T04:34:58.316Z,0.00
2018-10-11T04:35:58.340Z,0.00
2018-10-11T04:36:58.310Z,0.00
2018-10-11T04:37:58.306Z,0.00
2018-10-11T04:38:58.298Z,0.00
2018-10-11T04:39:58.292Z,0.00
2018-10-11T04:40:58.293Z,0.00
2018-10-11T04:41:58.307Z,0.00
2018-10-11T04:42:58.392Z,0.00
2018-10-11T04:43:58.278Z,0.00
2018-10-11T04:44:58.270Z,0.00
2018-10-11T04:45:58.266Z,0.00
2018-10-11T04:46:58.261Z,0.00
2018-10-11T04:47:58.256Z,0.00
2018-10-11T04:48:58.257Z,0.00
2018-10-11T04:49:58.253Z,0.00
2018-10-11T04:50:58.252Z,0.00
2018-10-11T04:51:58.244Z,0.00
2018-10-11T04:52:58.234Z,0.00
2018-10-11T04:53:58.231Z,0.00
2018-10-11T04:54:58.232Z,0.00
2018-10-11T04:55:58.228Z,0.00
2018-10-11T04:56:58.219Z,0.00
2018-10-11T04:57:58.213Z,0.00
2018-10-11T04:58:58.210Z,0.00
2018-10-11T04:59:58.205Z,0.00
2018-10-11T05:00:58.204Z,0.00
2018-10-11T05:01:58.200Z,0.00
2018-10-11T05:02:58.198Z,0.00
2018-10-11T05:03:58.191Z,0.00
2018-10-11T05:04:58.182Z,0.00
2018-10-11T05:05:58.178Z,0.00
2018-10-11T05:06:58.174Z,0.00
2018-10-11T05:07:58.168Z,0.00
2018-10-11T05:08:58.169Z,0.00
2018-10-11T05:09:58.164Z,0.00
2018-10-11T05:10:58.157Z,0.00
2018-10-11T05:11:58.151Z,0.00
2018-10-11T05:12:58.150Z,0.00
2018-10-11T05:13:58.147Z,4.00
2018-10-11T05:14:58.142Z,0.00
2018-10-11T05:15:58.144Z,4.00
2018-10-11T05:16:58.130Z,0.00
2018-10-11T05:17:58.125Z,4.00
2018-10-11T05:18:58.120Z,4.00
2018-10-11T05:19:58.115Z,4.00
2018-10-11T05:20:58.117Z,4.00
2018-10-11T05:21:58.111Z,4.00
2018-10-11T05:22:58.106Z,8.00
2018-10-11T05:23:58.102Z,8.00
2018-10-11T05:24:58.092Z,12.00
2018-10-11T05:25:58.105Z,16.00
2018-10-11T05:26:58.090Z,16.00
2018-10-11T05:27:58.153Z,20.00
2018-10-11T05:28:58.076Z,24.00
2018-10-11T05:29:58.072Z,28.00
2018-10-11T05:30:58.066Z,32.00
2018-10-11T05:31:58.061Z,36.00
2018-10-11T05:32:58.064Z,40.00
2018-10-11T05:33:58.059Z,48.00
2018-10-11T05:34:58.054Z,56.00
2018-10-11T05:35:58.049Z,64.00
2018-10-11T05:36:58.044Z,72.00
2018-10-11T05:37:58.084Z,84.00
2018-10-11T05:38:58.031Z,96.00
2018-10-11T05:39:58.028Z,108.00
2018-10-11T05:40:58.028Z,120.00
2018-10-11T05:41:58.028Z,136.00
2018-10-11T05:42:58.018Z,152.00
2018-10-11T05:43:58.010Z,168.00
2018-10-11T05:44:58.008Z,184.00
2018-10-11T05:45:58.004Z,204.00
2018-10-11T05:46:58.002Z,224.00
2018-10-11T05:47:57.995Z,244.00
2018-10-11T05:48:57.987Z,264.00
2018-10-11T05:49:57.982Z,288.00
2018-10-11T05:50:57.978Z,316.00
2018-10-11T05:51:57.972Z,344.00
2018-10-11T05:52:57.976Z,368.00
2018-10-11T05:53:57.970Z,400.00
2018-10-11T05:54:57.964Z,432.00
2018-10-11T05:55:57.959Z,464.00
2018-10-11T05:56:57.950Z,496.00
2018-10-11T05:57:57.946Z,536.00
2018-10-11T05:58:57.946Z,572.00
2018-10-11T05:59:57.942Z,612.00
2018-10-11T06:00:57.934Z,656.00
2018-10-11T06:01:57.928Z,696.00
2018-10-11T06:02:57.924Z,740.00
2018-10-11T06:03:57.942Z,788.00
2018-10-11T06:04:57.920Z,836.00
2018-10-11T06:05:57.916Z,884.00
2018-10-11T06:06:57.906Z,932.00
2018-10-11T06:07:57.902Z,984.00
2018-10-11T06:08:57.902Z,1044.00
2018-10-11T06:09:57.897Z,1096.00
2018-10-11T06:10:57.893Z,1152.00
2018-10-11T06:11:57.945Z,1216.00
2018-10-11T06:12:57.879Z,1288.00
2018-10-11T06:13:57.874Z,1392.00
2018-10-11T06:14:57.875Z,1512.00
2018-10-11T06:15:57.869Z,1808.00
2018-10-11T06:16:57.862Z,2500.00
2018-10-11T06:17:57.946Z,3104.00
2018-10-11T06:18:57.854Z,3428.00
2018-10-11T06:19:57.848Z,3708.00
2018-10-11T06:20:57.850Z,4008.00
2018-10-11T06:21:57.846Z,4280.00
2018-10-11T06:22:57.842Z,4580.00
2018-10-11T06:23:57.847Z,4832.00
2018-10-11T06:24:58.049Z,5112.00
2018-10-11T06:25:57.828Z,5372.00
2018-10-11T06:26:57.821Z,5696.00
2018-10-11T06:27:57.818Z,5988.00
2018-10-11T06:28:57.819Z,6300.00
2018-10-11T06:29:57.821Z,6620.00
2018-10-11T06:30:57.808Z,6916.00
2018-10-11T06:31:57.806Z,7140.00
2018-10-11T06:32:57.806Z,7420.00
2018-10-11T06:33:57.805Z,7700.00
2018-10-11T06:34:57.804Z,8024.00
2018-10-11T06:35:57.890Z,8300.00
2018-10-11T06:36:57.794Z,8644.00
2018-10-11T06:37:57.794Z,8836.00
2018-10-11T06:38:57.791Z,9092.00
2018-10-11T06:39:57.790Z,9308.00
2018-10-11T06:40:57.792Z,9612.00
2018-10-11T06:41:57.906Z,9892.00
2018-10-11T06:42:57.790Z,10192.00
2018-10-11T06:43:57.789Z,10404.00
2018-10-11T06:44:57.785Z,10668.00
2018-10-11T06:45:57.785Z,10864.00
2018-10-11T06:46:57.789Z,11060.00
2018-10-11T06:47:57.788Z,11256.00
2018-10-11T06:48:57.783Z,11412.00
2018-10-11T06:49:57.919Z,11608.00
2018-10-11T06:50:57.791Z,11704.00
2018-10-11T06:51:57.783Z,6592.00
2018-10-11T06:52:57.788Z,6760.00
2018-10-11T06:53:57.790Z,6916.00
2018-10-11T06:54:57.791Z,7092.00
2018-10-11T06:55:57.810Z,7228.00
2018-10-11T06:56:57.787Z,7348.00
2018-10-11T06:57:57.788Z,7504.00
2018-10-11T06:58:57.789Z,7628.00
2018-10-11T06:59:57.788Z,7740.00
2018-10-11T07:00:57.796Z,7884.00
2018-10-11T07:01:57.832Z,8060.00
2018-10-11T07:02:57.793Z,8252.00
2018-10-11T07:03:57.794Z,8460.00
2018-10-11T07:04:57.799Z,8588.00
2018-10-11T07:05:57.801Z,8676.00
2018-10-11T07:06:57.803Z,8776.00
2018-10-11T07:07:57.804Z,8888.00
2018-10-11T07:08:57.801Z,9024.00
2018-10-11T07:09:57.808Z,9164.00
2018-10-11T07:10:57.805Z,9252.00
2018-10-11T07:11:57.807Z,9312.00
2018-10-11T07:12:57.813Z,9408.00
2018-10-11T07:13:57.876Z,9544.00
2018-10-11T07:14:57.819Z,9680.00
2018-10-11T07:15:57.819Z,9820.00
2018-10-11T07:16:57.816Z,9956.00
2018-10-11T07:17:57.818Z,10104.00
2018-10-11T07:18:57.832Z,10120.00
2018-10-11T07:19:57.830Z,10280.00
2018-10-11T07:20:57.825Z,10440.00
2018-10-11T07:21:57.828Z,10552.00
2018-10-11T07:22:57.830Z,10644.00
2018-10-11T07:23:57.832Z,10732.00
2018-10-11T07:24:57.839Z,10916.00
2018-10-11T07:25:57.918Z,11068.00
2018-10-11T07:26:57.847Z,11164.00
2018-10-11T07:27:57.846Z,11256.00
2018-10-11T07:28:57.845Z,11468.00
2018-10-11T07:29:57.848Z,11524.00
2018-10-11T07:30:57.854Z,11596.00
2018-10-11T07:31:57.854Z,11704.00
2018-10-11T07:32:57.861Z,11800.00
2018-10-11T07:33:57.864Z,11840.00
2018-10-11T07:34:57.925Z,12008.00
2018-10-11T07:35:57.866Z,12160.00
2018-10-11T07:36:57.874Z,12204.00
2018-10-11T07:37:57.877Z,12264.00
2018-10-11T07:38:57.883Z,12296.00
2018-10-11T07:39:57.882Z,12436.00
2018-10-11T07:40:57.920Z,12588.00
2018-10-11T07:41:57.885Z,12604.00
2018-10-11T07:42:57.890Z,12688.00
2018-10-11T07:43:57.893Z,12768.00
2018-10-11T07:44:57.903Z,12936.00
2018-10-11T07:45:57.903Z,12984.00
2018-10-11T07:46:57.915Z,13192.00
2018-10-11T07:47:57.911Z,13276.00
2018-10-11T07:48:57.911Z,13380.00
2018-10-11T07:49:57.914Z,13516.00
2018-10-11T07:50:57.924Z,13552.00
2018-10-11T07:51:57.926Z,13636.00
2018-10-11T07:52:57.982Z,13808.00
2018-10-11T07:53:57.929Z,13924.00
2018-10-11T07:54:57.934Z,14000.00
2018-10-11T07:55:57.937Z,14080.00
2018-10-11T07:56:57.948Z,14164.00
2018-10-11T07:57:57.951Z,14464.00
2018-10-11T07:58:57.958Z,14592.00
2018-10-11T07:59:57.959Z,14720.00
2018-10-11T08:00:57.959Z,14784.00
2018-10-11T08:01:57.964Z,14944.00
2018-10-11T08:02:57.970Z,15040.00
2018-10-11T08:03:57.975Z,15168.00
2018-10-11T08:04:57.985Z,15328.00
2018-10-11T08:05:57.989Z,15456.00
2018-10-11T08:06:58.043Z,15680.00
2018-10-11T08:07:58.027Z,15744.00
2018-10-11T08:08:58.018Z,15840.00
2018-10-11T08:09:58.010Z,15904.00
2018-10-11T08:10:58.117Z,16032.00
2018-10-11T08:11:58.202Z,16128.00
2018-10-11T08:12:58.020Z,16064.00
2018-10-11T08:13:58.025Z,16224.00
2018-10-11T08:14:58.031Z,16256.00
2018-10-11T08:15:58.119Z,16320.00
2018-10-11T08:16:58.288Z,16416.00
2018-10-11T08:17:58.316Z,16576.00
2018-10-11T08:18:58.250Z,16768.00
2018-10-11T08:19:58.080Z,16992.00
2018-10-11T08:20:58.066Z,17280.00
2018-10-11T08:21:58.076Z,17696.00
2018-10-11T08:22:58.087Z,18048.00
2018-10-11T08:23:58.088Z,18528.00
2018-10-11T08:24:58.224Z,18656.00
2018-10-11T08:25:58.623Z,18912.00
2018-10-11T08:26:58.199Z,19136.00
2018-10-11T08:27:58.109Z,19520.00
2018-10-11T08:28:58.121Z,19680.00
2018-10-11T08:29:58.129Z,19968.00
2018-10-11T08:30:58.139Z,20224.00
2018-10-11T08:31:58.143Z,20480.00
2018-10-11T08:32:58.155Z,20576.00
2018-10-11T08:33:58.152Z,21056.00
2018-10-11T08:34:58.159Z,21152.00
2018-10-11T08:35:58.165Z,21504.00
2018-10-11T08:36:58.180Z,21600.00
2018-10-11T08:37:58.473Z,21632.00
2018-10-11T08:38:58.187Z,21600.00
2018-10-11T08:39:58.196Z,21536.00
2018-10-11T08:40:58.206Z,21344.00
2018-10-11T08:41:58.217Z,21344.00
2018-10-11T08:42:58.223Z,21536.00
2018-10-11T08:43:58.299Z,21760.00
2018-10-11T08:44:58.232Z,21760.00
2018-10-11T08:45:58.240Z,22208.00
2018-10-11T08:46:58.249Z,22688.00
2018-10-11T08:47:58.255Z,23296.00
2018-10-11T08:48:58.290Z,24224.00
2018-10-11T08:49:58.278Z,24160.00
2018-10-11T08:50:58.324Z,23456.00
2018-10-11T08:51:58.292Z,23552.00
2018-10-11T08:52:58.297Z,22784.00
2018-10-11T08:53:58.305Z,20704.00
2018-10-11T08:54:58.319Z,14264.00
2018-10-11T08:55:58.369Z,22720.00
2018-10-11T08:56:58.333Z,13868.00
2018-10-11T08:57:58.341Z,25248.00
2018-10-11T08:58:58.354Z,8996.00
2018-10-11T08:59:58.358Z,13740.00
2018-10-11T09:00:58.377Z,8280.00
2018-10-11T09:01:58.385Z,20192.00
2018-10-11T09:02:58.390Z,19072.00
2018-10-11T09:03:58.529Z,24160.00
2018-10-11T09:04:58.457Z,25216.00
2018-10-11T09:05:58.410Z,25216.00
2018-10-11T09:06:58.419Z,25376.00
2018-10-11T09:07:58.427Z,26400.00
2018-10-11T09:08:58.439Z,27200.00
2018-10-11T09:09:58.450Z,26784.00
2018-10-11T09:10:58.484Z,26976.00
2018-10-11T09:11:58.461Z,26880.00
2018-10-11T09:12:58.475Z,26528.00
2018-10-11T09:13:58.630Z,27072.00
2018-10-11T09:14:58.494Z,27648.00
2018-10-11T09:15:58.502Z,27456.00
2018-10-11T09:16:58.508Z,26848.00
2018-10-11T09:17:58.517Z,26176.00
2018-10-11T09:18:58.528Z,23904.00
2018-10-11T09:19:58.535Z,25536.00
2018-10-11T09:20:58.550Z,23872.00
2018-10-11T09:21:58.560Z,20704.00
2018-10-11T09:22:58.571Z,18240.00
2018-10-11T09:23:58.581Z,16736.00
2018-10-11T09:24:58.585Z,18880.00
2018-10-11T09:25:58.597Z,21856.00
2018-10-11T09:26:58.611Z,19328.00
2018-10-11T09:27:58.621Z,18464.00
2018-10-11T09:28:58.628Z,14840.00
2018-10-11T09:29:58.639Z,19168.00
2018-10-11T09:30:58.649Z,11768.00
2018-10-11T09:31:58.658Z,16096.00
2018-10-11T09:32:58.673Z,15936.00
2018-10-11T09:33:58.685Z,14424.00
2018-10-11T09:34:58.693Z,11300.00
2018-10-11T09:35:58.704Z,11384.00
2018-10-11T09:36:58.709Z,13724.00
2018-10-11T09:37:58.721Z,12308.00
2018-10-11T09:38:58.730Z,13916.00
2018-10-11T09:39:58.739Z,18720.00
2018-10-11T09:40:58.752Z,19744.00
2018-10-11T09:41:58.762Z,17920.00
2018-10-11T09:42:58.823Z,10264.00
2018-10-11T09:43:58.774Z,8540.00
2018-10-11T09:44:58.789Z,10060.00
2018-10-11T09:45:58.797Z,15968.00
2018-10-11T09:46:58.806Z,13848.00
2018-10-11T09:47:58.820Z,11536.00
2018-10-11T09:48:58.818Z,22112.00
2018-10-11T09:49:58.825Z,20672.00
2018-10-11T09:50:58.833Z,21376.00
2018-10-11T09:51:58.840Z,21568.00
2018-10-11T09:52:58.853Z,20256.00
2018-10-11T09:53:58.861Z,18176.00
2018-10-11T09:54:58.976Z,16704.00
2018-10-11T09:55:58.881Z,19648.00
2018-10-11T09:56:58.882Z,17696.00
2018-10-11T09:57:58.892Z,15808.00
2018-10-11T09:58:58.903Z,18368.00
2018-10-11T09:59:58.911Z,15776.00
2018-10-11T10:00:58.913Z,13264.00
2018-10-11T10:01:58.978Z,10520.00
2018-10-11T10:02:58.933Z,10440.00
2018-10-11T10:03:58.940Z,13284.00
2018-10-11T10:04:58.953Z,15000.00
2018-10-11T10:05:58.962Z,18368.00
2018-10-11T10:06:58.970Z,17600.00
2018-10-11T10:07:58.976Z,17024.00
2018-10-11T10:08:58.980Z,16192.00
2018-10-11T10:09:59.051Z,13848.00
2018-10-11T10:10:58.998Z,14328.00
2018-10-11T10:11:59.005Z,12684.00
2018-10-11T10:12:59.019Z,11984.00
2018-10-11T10:13:59.029Z,17984.00
2018-10-11T10:14:59.030Z,20128.00
2018-10-11T10:15:59.038Z,18848.00
2018-10-11T10:16:59.053Z,19136.00
2018-10-11T10:17:59.061Z,15872.00
2018-10-11T10:18:59.068Z,15776.00
2018-10-11T10:19:59.075Z,17248.00
2018-10-11T10:20:59.107Z,19552.00
2018-10-11T10:21:59.090Z,19232.00
2018-10-11T10:22:59.099Z,16064.00
2018-10-11T10:23:59.106Z,15584.00
2018-10-11T10:24:59.120Z,13336.00
2018-10-11T10:25:59.130Z,13928.00
2018-10-11T10:26:59.216Z,15808.00
2018-10-11T10:27:59.149Z,15168.00
2018-10-11T10:28:59.152Z,16576.00
2018-10-11T10:29:59.162Z,16736.00
2018-10-11T10:30:59.177Z,14420.00
2018-10-11T10:31:59.185Z,16544.00
2018-10-11T10:32:59.192Z,16032.00
2018-10-11T10:33:59.232Z,15132.00
2018-10-11T10:34:59.208Z,13492.00
2018-10-11T10:35:59.217Z,16064.00
2018-10-11T10:36:59.235Z,13308.00
2018-10-11T10:37:59.240Z,13552.00
2018-10-11T10:38:59.248Z,15936.00
2018-10-11T10:39:59.381Z,17440.00
2018-10-11T10:40:59.260Z,16768.00
2018-10-11T10:41:59.280Z,16384.00
2018-10-11T10:42:59.285Z,16800.00
2018-10-11T10:43:59.290Z,14812.00
2018-10-11T10:44:59.302Z,16608.00
2018-10-11T10:45:59.309Z,17248.00
2018-10-11T10:46:59.314Z,15548.00
2018-10-11T10:47:59.323Z,20384.00
2018-10-11T10:48:59.430Z,18944.00
2018-10-11T10:49:59.347Z,19328.00
2018-10-11T10:50:59.354Z,20288.00
2018-10-11T10:51:59.362Z,18784.00
2018-10-11T10:52:59.369Z,18688.00
2018-10-11T10:53:59.377Z,18240.00
2018-10-11T10:54:59.392Z,18400.00
2018-10-11T10:55:59.397Z,18592.00
2018-10-11T10:56:59.410Z,15904.00
2018-10-11T10:57:59.420Z,16640.00
2018-10-11T10:58:59.430Z,17120.00
2018-10-11T10:59:59.440Z,19264.00
2018-10-11T11:00:59.444Z,11952.00
2018-10-11T11:01:59.455Z,10792.00
2018-10-11T11:02:59.469Z,16480.00
2018-10-11T11:03:59.478Z,19168.00
2018-10-11T11:04:59.482Z,14404.00
2018-10-11T11:05:59.492Z,11108.00
2018-10-11T11:06:59.501Z,14268.00
2018-10-11T11:07:59.511Z,16960.00
2018-10-11T11:08:59.524Z,17824.00
2018-10-11T11:09:59.533Z,18464.00
2018-10-11T11:10:59.542Z,17216.00
2018-10-11T11:11:59.551Z,14432.00
2018-10-11T11:12:59.597Z,14592.00
2018-10-11T11:13:59.564Z,12272.00
2018-10-11T11:14:59.575Z,7604.00
2018-10-11T11:15:59.582Z,6936.00
2018-10-11T11:16:59.596Z,6200.00
2018-10-11T11:17:59.606Z,6524.00
2018-10-11T11:18:59.702Z,5696.00
2018-10-11T11:19:59.615Z,5696.00
2018-10-11T11:20:59.628Z,5500.00
2018-10-11T11:21:59.636Z,5544.00
2018-10-11T11:22:59.643Z,5588.00
2018-10-11T11:23:59.649Z,5684.00
2018-10-11T11:24:59.700Z,6476.00
2018-10-11T11:25:59.658Z,6112.00
2018-10-11T11:26:59.666Z,6040.00
2018-10-11T11:27:59.676Z,6220.00
2018-10-11T11:28:59.683Z,7248.00
2018-10-11T11:29:59.689Z,8024.00
2018-10-11T11:30:59.739Z,8240.00
2018-10-11T11:31:59.699Z,7560.00
2018-10-11T11:32:59.700Z,7208.00
2018-10-11T11:33:59.705Z,7232.00
2018-10-11T11:34:59.714Z,7592.00
2018-10-11T11:35:59.718Z,8060.00
2018-10-11T11:36:59.720Z,7932.00
2018-10-11T11:37:59.724Z,8408.00
2018-10-11T11:38:59.730Z,8332.00
2018-10-11T11:39:59.785Z,8600.00
2018-10-11T11:40:59.743Z,8732.00
2018-10-11T11:41:59.748Z,8652.00
2018-10-11T11:42:59.751Z,8892.00
2018-10-11T11:43:59.755Z,8520.00
2018-10-11T11:44:59.755Z,8404.00
2018-10-11T11:45:59.851Z,8972.00
2018-10-11T11:46:59.764Z,8352.00
2018-10-11T11:47:59.767Z,8440.00
2018-10-11T11:48:59.774Z,8636.00
2018-10-11T11:49:59.779Z,8396.00
2018-10-11T11:50:59.780Z,7656.00
2018-10-11T11:51:59.782Z,7728.00
2018-10-11T11:52:59.837Z,7784.00
2018-10-11T11:53:59.794Z,8356.00
2018-10-11T11:54:59.800Z,9036.00
2018-10-11T11:55:59.802Z,8748.00
2018-10-11T11:56:59.802Z,8896.00
2018-10-11T11:57:59.851Z,8976.00
2018-10-11T11:58:59.809Z,8800.00
2018-10-11T11:59:59.812Z,6996.00
2018-10-11T12:00:59.821Z,6448.00
2018-10-11T12:01:59.844Z,5860.00
2018-10-11T12:02:59.828Z,5328.00
2018-10-11T12:03:59.830Z,5008.00
2018-10-11T12:04:59.851Z,4884.00
2018-10-11T12:05:59.834Z,4960.00
2018-10-11T12:06:59.841Z,5308.00
2018-10-11T12:07:59.847Z,6044.00
2018-10-11T12:08:59.842Z,6976.00
2018-10-11T12:09:59.851Z,8180.00
2018-10-11T12:10:59.903Z,9056.00
2018-10-11T12:11:59.852Z,9744.00
2018-10-11T12:12:59.860Z,10236.00
2018-10-11T12:13:59.863Z,11152.00
2018-10-11T12:14:59.867Z,11344.00
2018-10-11T12:15:59.868Z,11228.00
2018-10-11T12:16:59.866Z,10388.00
2018-10-11T12:17:59.869Z,10376.00
2018-10-11T12:18:59.875Z,8984.00
2018-10-11T12:19:59.877Z,8400.00
2018-10-11T12:20:59.883Z,7400.00
2018-10-11T12:21:59.939Z,7100.00
2018-10-11T12:22:59.885Z,6608.00
2018-10-11T12:23:59.887Z,5980.00
2018-10-11T12:25:00.016Z,5364.00
2018-10-11T12:25:59.898Z,4900.00
2018-10-11T12:26:59.903Z,4604.00
2018-10-11T12:27:59.905Z,4008.00
2018-10-11T12:29:00.007Z,3824.00
2018-10-11T12:29:59.906Z,3696.00
2018-10-11T12:30:59.912Z,3736.00